Phoenix — JL6690 — position and weather

sailwx.info

Track history (hours):
 
Tides and Currents Weather Stations Pressure Air Temp Water Temp Dewpoint Dewpoint Depression Visibility Wind Speed Wind Dir Waves Ship Positions

Phoenix

Last reported at 2018-Jan-23 23:30 UTC. Time now 2018-Jan-23 23:44 UTC.
Position N 35°25' E 139°41'.

Length 160 m; draft 7 m.

Type: Cargo ship. MMSI: 431501732.

Date/timePositionNaut miles runAvg speedWind from/ knotsBaromVisibWave heightAir tempDewpointWater temp
2018-Jan-23 23:30N 35°25' E 139°41'4 8.6
2018-Jan-23 23:00N 35°21' E 139°43'713.1
2018-Jan-23 22:31N 35°16' E 139°47'815.5
2018-Jan-23 22:01N 35°08' E 139°46'1019.1
2018-Jan-23 21:30N 35°00' E 139°39'1020.1
2018-Jan-23 21:00N 34°54' E 139°29'1119.5
2018-Jan-23 20:27N 34°48' E 139°18'917.2
2018-Jan-23 19:54N 34°40' E 139°11'819.3
2018-Jan-23 19:30N 34°34' E 139°06'1121.2
2018-Jan-23 19:00N 34°31' E 138°53'1018.4
2018-Jan-23 18:28N 34°29' E 138°42'919.0
2018-Jan-23 18:00N 34°28' E 138°31'1419.8
2018-Jan-23 17:19N 34°26' E 138°15'617.3
2018-Jan-23 16:58N 34°24' E 138°08'817.2
2018-Jan-23 16:29N 34°22' E 137°58'6215.6
2018-Jan-23 12:29N 34°02' E 136°47'7516.7
2018-Jan-23 07:59N 33°32' E 135°24'2020.4
2018-Jan-23 07:01N 33°46' E 135°07'120.3
2018-Jan-23 06:57N 33°48' E 135°06'920.7
2018-Jan-23 06:30N 33°55' E 135°00'1121.3
2018-Jan-23 06:00N 34°06' E 134°60'1121.0
2018-Jan-23 05:30N 34°16' E 134°59'919.0
2018-Jan-23 05:01N 34°25' E 135°03'1019.9
2018-Jan-23 04:31N 34°32' E 135°12'815.4
2018-Jan-23 04:00N 34°39' E 135°16'3 5.1
2018-Jan-23 03:27N 34°41' E 135°13'0 0.0
2018-Jan-23 03:00N 34°41' E 135°13'0 0.0
2018-Jan-23 02:30N 34°41' E 135°13'0 0.0
2018-Jan-23 01:57N 34°41' E 135°13'0 0.0
2018-Jan-23 01:27N 34°41' E 135°13'0 0.0
2018-Jan-23 01:00N 34°41' E 135°13'0 0.0
2018-Jan-23 00:27N 34°41' E 135°13'0 0.0
2018-Jan-23 00:00N 34°41' E 135°13'0 0.0
2018-Jan-22 23:30N 34°41' E 135°13'3 5.7
2018-Jan-22 23:00N 34°39' E 135°16'816.8
2018-Jan-22 22:30N 34°35' E 135°07'918.8
2018-Jan-22 22:00N 34°36' E 134°56'1019.5
2018-Jan-22 21:30N 34°32' E 134°45'815.7
2018-Jan-22 21:00N 34°29' E 134°36'814.8
2018-Jan-22 20:29N 34°26' E 134°27'918.4
2018-Jan-22 20:00N 34°24' E 134°17'2215.5
2018-Jan-22 18:36N 34°23' E 133°51'918.4
2018-Jan-22 18:05N 34°18' E 133°41'219.5
2018-Jan-22 18:00N 34°18' E 133°39'3417.2
2018-Jan-22 16:01N 34°09' E 132°59'013.7
2018-Jan-22 15:59N 34°09' E 132°58'1315.2
2018-Jan-22 15:07N 34°02' E 132°45'219.1
2018-Jan-22 15:00N 33°60' E 132°45'1019.1
2018-Jan-22 14:30N 33°53' E 132°36'1018.8
2018-Jan-22 14:00N 33°46' E 132°28'918.6
2018-Jan-22 13:30N 33°43' E 132°17'1417.9
2018-Jan-22 12:43N 33°42' E 132°01'418.6
2018-Jan-22 12:31N 33°43' E 131°56'918.2
2018-Jan-22 12:01N 33°45' E 131°45'918.4
2018-Jan-22 11:31N 33°47' E 131°35'918.4
2018-Jan-22 11:01N 33°48' E 131°24'1019.1
2018-Jan-22 10:31N 33°49' E 131°12'815.5
2018-Jan-22 10:00N 33°49' E 131°03'3 5.6
2018-Jan-22 09:29N 33°46' E 131°00'0 0.0
2018-Jan-22 08:59N 33°46' E 131°00'0 0.0
2018-Jan-22 08:29N 33°46' E 131°00'0 0.0
2018-Jan-22 07:59N 33°46' E 131°00'0 0.0
2018-Jan-22 07:29N 33°46' E 131°00'0 0.0
2018-Jan-22 06:59N 33°46' E 131°00'0 0.0
2018-Jan-22 06:29N 33°46' E 131°00'0 0.0
2018-Jan-22 05:59N 33°46' E 131°00'0 0.0
2018-Jan-22 05:29N 33°46' E 131°00'0 0.0
2018-Jan-22 04:59N 33°46' E 131°00'0 0.0
2018-Jan-22 04:29N 33°46' E 131°00'0 0.0
2018-Jan-22 03:59N 33°46' E 131°00'0 0.0
2018-Jan-22 03:29N 33°46' E 131°00'0 0.0
2018-Jan-22 02:59N 33°46' E 131°00'0 0.0
2018-Jan-22 02:29N 33°46' E 131°00'0 0.0
2018-Jan-22 01:59N 33°46' E 131°00'0 0.0
2018-Jan-22 01:29N 33°46' E 131°00'0 0.0
2018-Jan-22 00:59N 33°46' E 131°00'0 0.0
2018-Jan-22 00:31N 33°46' E 131°00'0 0.0
2018-Jan-22 00:00N 33°46' E 131°00'3 6.8
2018-Jan-21 23:31N 33°49' E 131°03'816.3
2018-Jan-21 23:00N 33°49' E 131°13'918.2
2018-Jan-21 22:30N 33°45' E 131°23'917.7
2018-Jan-21 22:00N 33°46' E 131°34'918.5
2018-Jan-21 21:30N 33°46' E 131°45'918.2
2018-Jan-21 21:00N 33°44' E 131°56'1218.3
2018-Jan-21 20:20N 33°43' E 132°11'515.7
2018-Jan-21 20:00N 33°44' E 132°16'815.5
2018-Jan-21 19:29N 33°47' E 132°26'919.3
2018-Jan-21 19:00N 33°52' E 132°34'1020.0
2018-Jan-21 18:30N 33°59' E 132°43'1619.9
2018-Jan-21 17:43N 34°10' E 132°57'5816.5
2018-Jan-21 14:14N 34°27' E 134°04'420.0
2018-Jan-21 14:00N 34°26' E 134°09'1020.3
2018-Jan-21 13:30N 34°25' E 134°21'1020.5
2018-Jan-21 13:01N 34°29' E 134°33'2120.6
2018-Jan-21 12:00N 34°37' E 134°56'918.7
2018-Jan-21 11:30N 34°36' E 135°07'815.9
2018-Jan-21 11:01N 34°38' E 135°16'3 5.8
2018-Jan-21 10:28N 34°41' E 135°13'0 0.0
2018-Jan-21 09:58N 34°41' E 135°13'0 0.0
2018-Jan-21 09:25N 34°41' E 135°13'0 0.0
2018-Jan-21 08:55N 34°41' E 135°13'0 0.0
2018-Jan-21 08:28N 34°41' E 135°13'0 0.0
2018-Jan-21 07:58N 34°41' E 135°13'0 0.0
2018-Jan-21 07:30N 34°41' E 135°13'2 3.9
2018-Jan-21 07:00N 34°39' E 135°15'917.5
2018-Jan-21 06:30N 34°31' E 135°14'1019.8
2018-Jan-21 06:01N 34°23' E 135°06'918.4
2018-Jan-21 05:30N 34°16' E 134°59'1020.0
2018-Jan-21 05:00N 34°06' E 134°60'1019.6
2018-Jan-21 04:30N 33°56' E 135°01'1019.3
2018-Jan-21 04:00N 33°48' E 135°07'13417.9
2018-Jan-20 20:30N 34°19' E 137°44'1020.0
2018-Jan-20 20:00N 34°22' E 137°56'1019.5
2018-Jan-20 19:29N 34°25' E 138°08'1019.7
2018-Jan-20 18:59N 34°27' E 138°19'1019.9
2018-Jan-20 18:28N 34°29' E 138°32'919.9
2018-Jan-20 18:00N 34°31' E 138°43'1019.7
2018-Jan-20 17:30N 34°33' E 138°54'1019.2
2018-Jan-20 17:00N 34°39' E 139°04'1019.0
2018-Jan-20 16:28N 34°46' E 139°12'918.9
2018-Jan-20 16:01N 34°53' E 139°19'1019.3
2018-Jan-20 15:30N 34°58' E 139°29'1020.7
2018-Jan-20 15:00N 35°04' E 139°39'917.6
2018-Jan-20 14:30N 35°11' E 139°46'612.4
2018-Jan-20 14:00N 35°17' E 139°44'5 9.1
2018-Jan-20 13:30N 35°19' E 139°39'0 0.0
2018-Jan-20 13:00N 35°19' E 139°39'0 0.0
2018-Jan-20 12:30N 35°19' E 139°39'0 0.0
2018-Jan-20 12:00N 35°19' E 139°39'0 0.0
2018-Jan-20 11:30N 35°19' E 139°39'0 0.0
2018-Jan-20 11:00N 35°19' E 139°39'0 0.0
2018-Jan-20 10:30N 35°19' E 139°39'0 0.0
2018-Jan-20 09:57N 35°19' E 139°39'0 0.0
2018-Jan-20 09:30N 35°19' E 139°39'0 0.0
2018-Jan-20 09:00N 35°19' E 139°39'0 0.0
2018-Jan-20 08:30N 35°19' E 139°39'0 0.0
2018-Jan-20 08:00N 35°19' E 139°39'0 0.0
2018-Jan-20 07:30N 35°19' E 139°39'0 0.0
2018-Jan-20 07:00N 35°19' E 139°39'1 2.6
2018-Jan-20 06:31N 35°19' E 139°41'612.8
2018-Jan-20 06:00N 35°15' E 139°47'817.1
2018-Jan-20 05:31N 35°07' E 139°45'1020.0
2018-Jan-20 05:01N 34°59' E 139°36'1121.3
2018-Jan-20 04:30N 34°53' E 139°25'1221.3
2018-Jan-20 03:57N 34°46' E 139°15'1021.6
2018-Jan-20 03:29N 34°39' E 139°06'1021.4
2018-Jan-20 03:00N 34°32' E 138°56'1020.4
2018-Jan-20 02:30N 34°30' E 138°44'1020.0
2018-Jan-20 02:00N 34°28' E 138°32'1020.4
2018-Jan-20 01:30N 34°26' E 138°20'1020.4
2018-Jan-20 01:00N 34°24' E 138°08'1120.4
2018-Jan-20 00:29N 34°22' E 137°55'5920.2
2018-Jan-19 21:34N 34°03' E 136°48'120.1
2018-Jan-19 21:30N 34°02' E 136°47'23817.8
2018-Jan-19 08:05N 33°09' E 132°08'320.7
2018-Jan-19 07:57N 33°11' E 132°06'1021.6
2018-Jan-19 07:29N 33°19' E 131°59'1021.3
2018-Jan-19 07:00N 33°27' E 131°52'1121.5
2018-Jan-19 06:30N 33°37' E 131°46'1020.9
2018-Jan-19 06:00N 33°43' E 131°35'1121.0
2018-Jan-19 05:30N 33°45' E 131°23'1019.7
2018-Jan-19 05:00N 33°47' E 131°11'714.8
2018-Jan-19 04:31N 33°49' E 131°03'3 5.4
2018-Jan-19 03:59N 33°46' E 131°00'0 0.0
2018-Jan-19 03:29N 33°46' E 131°00'0 0.0
2018-Jan-19 02:59N 33°46' E 131°00'0 0.0
2018-Jan-19 02:29N 33°46' E 131°00'0 0.0
2018-Jan-19 01:59N 33°46' E 131°00'0 0.0
2018-Jan-19 01:29N 33°46' E 131°00'0 0.0
2018-Jan-19 00:59N 33°46' E 131°00'0 0.0
2018-Jan-19 00:29N 33°46' E 131°00'0 0.0
2018-Jan-18 23:59N 33°46' E 131°00'0 0.0
2018-Jan-18 23:29N 33°46' E 131°00'0 0.0
2018-Jan-18 22:59N 33°46' E 131°00'0 0.0
2018-Jan-18 22:29N 33°46' E 131°00'0 0.0
2018-Jan-18 22:00N 33°46' E 131°00'0 0.8
2018-Jan-18 21:30N 33°47' E 131°00'612.7
2018-Jan-18 21:00N 33°50' E 131°07'1020.0
2018-Jan-18 20:31N 33°49' E 131°19'1020.5
2018-Jan-18 20:00N 33°47' E 131°31'1020.4
2018-Jan-18 19:30N 33°46' E 131°44'1020.2
2018-Jan-18 19:00N 33°44' E 131°56'1020.4
2018-Jan-18 18:30N 33°42' E 132°08'1321.3
2018-Jan-18 17:54N 33°46' E 132°22'921.5
2018-Jan-18 17:30N 33°50' E 132°32'1122.2
2018-Jan-18 17:00N 33°57' E 132°41'1820.4
2018-Jan-18 16:07N 34°10' E 132°57'5815.5
2018-Jan-18 12:25N 34°27' E 134°04'821.1
2018-Jan-18 12:01N 34°25' E 134°14'1020.5
2018-Jan-18 11:31N 34°26' E 134°26'1020.4
2018-Jan-18 11:01N 34°30' E 134°38'1020.4
2018-Jan-18 10:30N 34°34' E 134°49'1020.0
2018-Jan-18 10:01N 34°38' E 135°00'918.1
2018-Jan-18 09:31N 34°36' E 135°11'5 9.5
2018-Jan-18 09:00N 34°40' E 135°15'2 3.3
2018-Jan-18 08:29N 34°41' E 135°13'0 0.0
2018-Jan-18 07:59N 34°41' E 135°13'0 0.0
2018-Jan-18 07:29N 34°41' E 135°13'0 0.0
2018-Jan-18 06:59N 34°41' E 135°13'0 0.0
2018-Jan-18 06:29N 34°41' E 135°13'0 0.0
2018-Jan-18 05:59N 34°41' E 135°13'0 0.0
2018-Jan-18 05:30N 34°41' E 135°13'2 3.0
2018-Jan-18 05:00N 34°40' E 135°15'816.3
2018-Jan-18 04:30N 34°32' E 135°13'1019.4
2018-Jan-18 04:00N 34°24' E 135°06'918.9
2018-Jan-18 03:30N 34°17' E 134°59'1019.9
2018-Jan-18 03:00N 34°07' E 134°60'1019.8
2018-Jan-18 02:31N 33°57' E 135°01'918.2
2018-Jan-18 02:00N 33°48' E 135°05'1419.1
2018-Jan-18 01:15N 33°38' E 135°17'  
Track history (hours):
 
Tides and Currents Weather Stations Pressure Air Temp Water Temp Dewpoint Dewpoint Depression Visibility Wind Speed Wind Dir Waves Ship Positions

Phoenix

Last reported at 2018-Jan-23 23:30 UTC. Time now 2018-Jan-23 23:44 UTC.
Position N 35°25' E 139°41'.

Length 160 m; draft 7 m.

Type: Cargo ship. MMSI: 431501732.

Date/timePositionNaut miles runAvg speedWind from/ knotsBaromVisibWave heightAir tempDewpointWater temp
2018-Jan-23 23:30N 35°25' E 139°41'4 8.6
2018-Jan-23 23:00N 35°21' E 139°43'713.1
2018-Jan-23 22:31N 35°16' E 139°47'815.5
2018-Jan-23 22:01N 35°08' E 139°46'1019.1
2018-Jan-23 21:30N 35°00' E 139°39'1020.1
2018-Jan-23 21:00N 34°54' E 139°29'1119.5
2018-Jan-23 20:27N 34°48' E 139°18'917.2
2018-Jan-23 19:54N 34°40' E 139°11'819.3
2018-Jan-23 19:30N 34°34' E 139°06'1121.2
2018-Jan-23 19:00N 34°31' E 138°53'1018.4
2018-Jan-23 18:28N 34°29' E 138°42'919.0
2018-Jan-23 18:00N 34°28' E 138°31'1419.8
2018-Jan-23 17:19N 34°26' E 138°15'617.3
2018-Jan-23 16:58N 34°24' E 138°08'817.2
2018-Jan-23 16:29N 34°22' E 137°58'6215.6
2018-Jan-23 12:29N 34°02' E 136°47'7516.7
2018-Jan-23 07:59N 33°32' E 135°24'2020.4
2018-Jan-23 07:01N 33°46' E 135°07'120.3
2018-Jan-23 06:57N 33°48' E 135°06'920.7
2018-Jan-23 06:30N 33°55' E 135°00'1121.3
2018-Jan-23 06:00N 34°06' E 134°60'1121.0
2018-Jan-23 05:30N 34°16' E 134°59'919.0
2018-Jan-23 05:01N 34°25' E 135°03'1019.9
2018-Jan-23 04:31N 34°32' E 135°12'815.4
2018-Jan-23 04:00N 34°39' E 135°16'3 5.1
2018-Jan-23 03:27N 34°41' E 135°13'0 0.0
2018-Jan-23 03:00N 34°41' E 135°13'0 0.0
2018-Jan-23 02:30N 34°41' E 135°13'0 0.0
2018-Jan-23 01:57N 34°41' E 135°13'0 0.0
2018-Jan-23 01:27N 34°41' E 135°13'0 0.0
2018-Jan-23 01:00N 34°41' E 135°13'0 0.0
2018-Jan-23 00:27N 34°41' E 135°13'0 0.0
2018-Jan-23 00:00N 34°41' E 135°13'0 0.0
2018-Jan-22 23:30N 34°41' E 135°13'3 5.7
2018-Jan-22 23:00N 34°39' E 135°16'816.8
2018-Jan-22 22:30N 34°35' E 135°07'918.8
2018-Jan-22 22:00N 34°36' E 134°56'1019.5
2018-Jan-22 21:30N 34°32' E 134°45'815.7
2018-Jan-22 21:00N 34°29' E 134°36'814.8
2018-Jan-22 20:29N 34°26' E 134°27'918.4
2018-Jan-22 20:00N 34°24' E 134°17'2215.5
2018-Jan-22 18:36N 34°23' E 133°51'918.4
2018-Jan-22 18:05N 34°18' E 133°41'219.5
2018-Jan-22 18:00N 34°18' E 133°39'3417.2
2018-Jan-22 16:01N 34°09' E 132°59'013.7
2018-Jan-22 15:59N 34°09' E 132°58'1315.2
2018-Jan-22 15:07N 34°02' E 132°45'219.1
2018-Jan-22 15:00N 33°60' E 132°45'1019.1
2018-Jan-22 14:30N 33°53' E 132°36'1018.8
2018-Jan-22 14:00N 33°46' E 132°28'918.6
2018-Jan-22 13:30N 33°43' E 132°17'1417.9
2018-Jan-22 12:43N 33°42' E 132°01'418.6
2018-Jan-22 12:31N 33°43' E 131°56'918.2
2018-Jan-22 12:01N 33°45' E 131°45'918.4
2018-Jan-22 11:31N 33°47' E 131°35'918.4
2018-Jan-22 11:01N 33°48' E 131°24'1019.1
2018-Jan-22 10:31N 33°49' E 131°12'815.5
2018-Jan-22 10:00N 33°49' E 131°03'3 5.6
2018-Jan-22 09:29N 33°46' E 131°00'0 0.0
2018-Jan-22 08:59N 33°46' E 131°00'0 0.0
2018-Jan-22 08:29N 33°46' E 131°00'0 0.0
2018-Jan-22 07:59N 33°46' E 131°00'0 0.0
2018-Jan-22 07:29N 33°46' E 131°00'0 0.0
2018-Jan-22 06:59N 33°46' E 131°00'0 0.0
2018-Jan-22 06:29N 33°46' E 131°00'0 0.0
2018-Jan-22 05:59N 33°46' E 131°00'0 0.0
2018-Jan-22 05:29N 33°46' E 131°00'0 0.0
2018-Jan-22 04:59N 33°46' E 131°00'0 0.0
2018-Jan-22 04:29N 33°46' E 131°00'0 0.0
2018-Jan-22 03:59N 33°46' E 131°00'0 0.0
2018-Jan-22 03:29N 33°46' E 131°00'0 0.0
2018-Jan-22 02:59N 33°46' E 131°00'0 0.0
2018-Jan-22 02:29N 33°46' E 131°00'0 0.0
2018-Jan-22 01:59N 33°46' E 131°00'0 0.0
2018-Jan-22 01:29N 33°46' E 131°00'0 0.0
2018-Jan-22 00:59N 33°46' E 131°00'0 0.0
2018-Jan-22 00:31N 33°46' E 131°00'0 0.0
2018-Jan-22 00:00N 33°46' E 131°00'3 6.8
2018-Jan-21 23:31N 33°49' E 131°03'816.3
2018-Jan-21 23:00N 33°49' E 131°13'918.2
2018-Jan-21 22:30N 33°45' E 131°23'917.7
2018-Jan-21 22:00N 33°46' E 131°34'918.5
2018-Jan-21 21:30N 33°46' E 131°45'918.2
2018-Jan-21 21:00N 33°44' E 131°56'1218.3
2018-Jan-21 20:20N 33°43' E 132°11'515.7
2018-Jan-21 20:00N 33°44' E 132°16'815.5
2018-Jan-21 19:29N 33°47' E 132°26'919.3
2018-Jan-21 19:00N 33°52' E 132°34'1020.0
2018-Jan-21 18:30N 33°59' E 132°43'1619.9
2018-Jan-21 17:43N 34°10' E 132°57'5816.5
2018-Jan-21 14:14N 34°27' E 134°04'420.0
2018-Jan-21 14:00N 34°26' E 134°09'1020.3
2018-Jan-21 13:30N 34°25' E 134°21'1020.5
2018-Jan-21 13:01N 34°29' E 134°33'2120.6
2018-Jan-21 12:00N 34°37' E 134°56'918.7
2018-Jan-21 11:30N 34°36' E 135°07'815.9
2018-Jan-21 11:01N 34°38' E 135°16'3 5.8
2018-Jan-21 10:28N 34°41' E 135°13'0 0.0
2018-Jan-21 09:58N 34°41' E 135°13'0 0.0
2018-Jan-21 09:25N 34°41' E 135°13'0 0.0
2018-Jan-21 08:55N 34°41' E 135°13'0 0.0
2018-Jan-21 08:28N 34°41' E 135°13'0 0.0
2018-Jan-21 07:58N 34°41' E 135°13'0 0.0
2018-Jan-21 07:30N 34°41' E 135°13'2 3.9
2018-Jan-21 07:00N 34°39' E 135°15'917.5
2018-Jan-21 06:30N 34°31' E 135°14'1019.8
2018-Jan-21 06:01N 34°23' E 135°06'918.4
2018-Jan-21 05:30N 34°16' E 134°59'1020.0
2018-Jan-21 05:00N 34°06' E 134°60'1019.6
2018-Jan-21 04:30N 33°56' E 135°01'1019.3
2018-Jan-21 04:00N 33°48' E 135°07'13417.9
2018-Jan-20 20:30N 34°19' E 137°44'1020.0
2018-Jan-20 20:00N 34°22' E 137°56'1019.5
2018-Jan-20 19:29N 34°25' E 138°08'1019.7
2018-Jan-20 18:59N 34°27' E 138°19'1019.9
2018-Jan-20 18:28N 34°29' E 138°32'919.9
2018-Jan-20 18:00N 34°31' E 138°43'1019.7
2018-Jan-20 17:30N 34°33' E 138°54'1019.2
2018-Jan-20 17:00N 34°39' E 139°04'1019.0
2018-Jan-20 16:28N 34°46' E 139°12'918.9
2018-Jan-20 16:01N 34°53' E 139°19'1019.3
2018-Jan-20 15:30N 34°58' E 139°29'1020.7
2018-Jan-20 15:00N 35°04' E 139°39'917.6
2018-Jan-20 14:30N 35°11' E 139°46'612.4
2018-Jan-20 14:00N 35°17' E 139°44'5 9.1
2018-Jan-20 13:30N 35°19' E 139°39'0 0.0
2018-Jan-20 13:00N 35°19' E 139°39'0 0.0
2018-Jan-20 12:30N 35°19' E 139°39'0 0.0
2018-Jan-20 12:00N 35°19' E 139°39'0 0.0
2018-Jan-20 11:30N 35°19' E 139°39'0 0.0
2018-Jan-20 11:00N 35°19' E 139°39'0 0.0
2018-Jan-20 10:30N 35°19' E 139°39'0 0.0
2018-Jan-20 09:57N 35°19' E 139°39'0 0.0
2018-Jan-20 09:30N 35°19' E 139°39'0 0.0
2018-Jan-20 09:00N 35°19' E 139°39'0 0.0
2018-Jan-20 08:30N 35°19' E 139°39'0 0.0
2018-Jan-20 08:00N 35°19' E 139°39'0 0.0
2018-Jan-20 07:30N 35°19' E 139°39'0 0.0
2018-Jan-20 07:00N 35°19' E 139°39'1 2.6
2018-Jan-20 06:31N 35°19' E 139°41'612.8
2018-Jan-20 06:00N 35°15' E 139°47'817.1
2018-Jan-20 05:31N 35°07' E 139°45'1020.0
2018-Jan-20 05:01N 34°59' E 139°36'1121.3
2018-Jan-20 04:30N 34°53' E 139°25'1221.3
2018-Jan-20 03:57N 34°46' E 139°15'1021.6
2018-Jan-20 03:29N 34°39' E 139°06'1021.4
2018-Jan-20 03:00N 34°32' E 138°56'1020.4
2018-Jan-20 02:30N 34°30' E 138°44'1020.0
2018-Jan-20 02:00N 34°28' E 138°32'1020.4
2018-Jan-20 01:30N 34°26' E 138°20'1020.4
2018-Jan-20 01:00N 34°24' E 138°08'1120.4
2018-Jan-20 00:29N 34°22' E 137°55'5920.2
2018-Jan-19 21:34N 34°03' E 136°48'120.1
2018-Jan-19 21:30N 34°02' E 136°47'23817.8
2018-Jan-19 08:05N 33°09' E 132°08'320.7
2018-Jan-19 07:57N 33°11' E 132°06'1021.6
2018-Jan-19 07:29N 33°19' E 131°59'1021.3
2018-Jan-19 07:00N 33°27' E 131°52'1121.5
2018-Jan-19 06:30N 33°37' E 131°46'1020.9
2018-Jan-19 06:00N 33°43' E 131°35'1121.0
2018-Jan-19 05:30N 33°45' E 131°23'1019.7
2018-Jan-19 05:00N 33°47' E 131°11'714.8
2018-Jan-19 04:31N 33°49' E 131°03'3 5.4
2018-Jan-19 03:59N 33°46' E 131°00'0 0.0
2018-Jan-19 03:29N 33°46' E 131°00'0 0.0
2018-Jan-19 02:59N 33°46' E 131°00'0 0.0
2018-Jan-19 02:29N 33°46' E 131°00'0 0.0
2018-Jan-19 01:59N 33°46' E 131°00'0 0.0
2018-Jan-19 01:29N 33°46' E 131°00'0 0.0
2018-Jan-19 00:59N 33°46' E 131°00'0 0.0
2018-Jan-19 00:29N 33°46' E 131°00'0 0.0
2018-Jan-18 23:59N 33°46' E 131°00'0 0.0
2018-Jan-18 23:29N 33°46' E 131°00'0 0.0
2018-Jan-18 22:59N 33°46' E 131°00'0 0.0
2018-Jan-18 22:29N 33°46' E 131°00'0 0.0
2018-Jan-18 22:00N 33°46' E 131°00'0 0.8
2018-Jan-18 21:30N 33°47' E 131°00'612.7
2018-Jan-18 21:00N 33°50' E 131°07'1020.0
2018-Jan-18 20:31N 33°49' E 131°19'1020.5
2018-Jan-18 20:00N 33°47' E 131°31'1020.4
2018-Jan-18 19:30N 33°46' E 131°44'1020.2
2018-Jan-18 19:00N 33°44' E 131°56'1020.4
2018-Jan-18 18:30N 33°42' E 132°08'1321.3
2018-Jan-18 17:54N 33°46' E 132°22'921.5
2018-Jan-18 17:30N 33°50' E 132°32'1122.2
2018-Jan-18 17:00N 33°57' E 132°41'1820.4
2018-Jan-18 16:07N 34°10' E 132°57'5815.5
2018-Jan-18 12:25N 34°27' E 134°04'821.1
2018-Jan-18 12:01N 34°25' E 134°14'1020.5
2018-Jan-18 11:31N 34°26' E 134°26'1020.4
2018-Jan-18 11:01N 34°30' E 134°38'1020.4
2018-Jan-18 10:30N 34°34' E 134°49'1020.0
2018-Jan-18 10:01N 34°38' E 135°00'918.1
2018-Jan-18 09:31N 34°36' E 135°11'5 9.5
2018-Jan-18 09:00N 34°40' E 135°15'2 3.3
2018-Jan-18 08:29N 34°41' E 135°13'0 0.0
2018-Jan-18 07:59N 34°41' E 135°13'0 0.0
2018-Jan-18 07:29N 34°41' E 135°13'0 0.0
2018-Jan-18 06:59N 34°41' E 135°13'0 0.0
2018-Jan-18 06:29N 34°41' E 135°13'0 0.0
2018-Jan-18 05:59N 34°41' E 135°13'0 0.0
2018-Jan-18 05:30N 34°41' E 135°13'2 3.0
2018-Jan-18 05:00N 34°40' E 135°15'816.3
2018-Jan-18 04:30N 34°32' E 135°13'1019.4
2018-Jan-18 04:00N 34°24' E 135°06'918.9
2018-Jan-18 03:30N 34°17' E 134°59'1019.9
2018-Jan-18 03:00N 34°07' E 134°60'1019.8
2018-Jan-18 02:31N 33°57' E 135°01'918.2
2018-Jan-18 02:00N 33°48' E 135°05'1419.1
2018-Jan-18 01:15N 33°38' E 135°17'  

Dump ship's entire track history